Time;durP1;ratioP1;P1;durP2;ratioP2;P2;SDS_P1;SDS_P2;PMS_P1;PMS_P2;Temp;Humidity;BMP_temperature;BMP_pressure;BME280_temperature;BME280_humidity;BME280_pressure;Samples;Min_cycle;Max_cycle;Signal;HPM_P1;HPM_P2
2021/09/25 00:02:07;;;;;;;1.92;1.83;;;13.00;73.80;;;;;;5012602;28;20185;-74
2021/09/25 00:04:33;;;;;;;2.17;2.08;;;13.00;73.60;;;;;;5011102;28;20203;-74
2021/09/25 00:06:59;;;;;;;2.78;2.00;;;13.00;73.50;;;;;;5015169;28;20760;-74
2021/09/25 00:09:25;;;;;;;1.83;1.70;;;12.90;73.50;;;;;;5015971;28;20177;-74
2021/09/25 00:11:51;;;;;;;2.20;2.08;;;13.00;73.40;;;;;;5009243;28;20193;-74
2021/09/25 00:14:17;;;;;;;2.92;2.65;;;12.90;74.10;;;;;;5015909;28;20208;-74
2021/09/25 00:16:43;;;;;;;2.05;1.73;;;12.90;73.70;;;;;;5015032;28;20730;-75
2021/09/25 00:19:09;;;;;;;1.65;1.50;;;12.90;74.10;;;;;;5012544;28;20195;-75
2021/09/25 00:21:35;;;;;;;2.50;1.98;;;12.90;73.80;;;;;;5014304;28;20195;-74
2021/09/25 00:24:01;;;;;;;2.58;1.60;;;12.90;73.90;;;;;;5018969;28;20673;-74
2021/09/25 00:26:27;;;;;;;3.30;1.48;;;12.90;74.10;;;;;;5045795;28;20200;-74
2021/09/25 00:28:54;;;;;;;2.25;1.90;;;12.90;74.10;;;;;;5012876;28;20195;-74
2021/09/25 00:31:20;;;;;;;1.90;1.80;;;12.90;74.60;;;;;;5013519;28;20646;-74
2021/09/25 00:33:45;;;;;;;2.47;1.52;;;12.80;75.10;;;;;;5022678;28;20212;-73
2021/09/25 00:36:12;;;;;;;1.60;1.50;;;12.80;75.10;;;;;;5015931;28;20207;-73
2021/09/25 00:38:39;;;;;;;3.17;2.30;;;12.80;75.00;;;;;;5016107;28;20185;-73
2021/09/25 00:41:08;;;;;;;2.45;1.88;;;12.80;75.40;;;;;;5018252;28;20685;-74
2021/09/25 00:43:34;;;;;;;3.28;2.25;;;12.80;75.40;;;;;;5015836;28;20215;-74
2021/09/25 00:46:03;;;;;;;2.25;2.15;;;12.70;75.40;;;;;;5016013;28;20196;-75
2021/09/25 00:48:29;;;;;;;3.00;2.28;;;;;;;;;;5021805;28;20260;-75
2021/09/25 00:50:55;;;;;;;1.92;1.55;;;12.70;75.50;;;;;;5013720;28;20618;-74
2021/09/25 00:53:21;;;;;;;3.35;2.03;;;;;;;;;;5016741;28;20357;-75
2021/09/25 00:55:48;;;;;;;1.63;1.63;;;12.60;76.10;;;;;;5014010;28;20185;-74
2021/09/25 00:58:14;;;;;;;3.28;2.22;;;;;;;;;;5011259;28;20176;-73
2021/09/25 01:00:40;;;;;;;2.05;1.85;;;12.60;77.20;;;;;;5009982;28;20188;-73
2021/09/25 01:03:06;;;;;;;1.95;1.85;;;12.50;77.40;;;;;;5019044;28;20200;-74
2021/09/25 01:05:32;;;;;;;1.50;1.50;;;12.50;77.10;;;;;;5019382;28;20185;-74
2021/09/25 01:07:59;;;;;;;2.30;2.10;;;;;;;;;;5014911;28;20693;-75
2021/09/25 01:10:25;;;;;;;3.38;1.42;;;12.40;77.40;;;;;;5015223;28;20658;-74
2021/09/25 01:12:51;;;;;;;3.25;2.33;;;12.40;77.50;;;;;;5016649;28;20183;-74
2021/09/25 01:15:20;;;;;;;9.60;2.42;;;12.40;77.50;;;;;;5014349;28;20240;-75
2021/09/25 01:17:45;;;;;;;3.45;2.03;;;12.30;77.40;;;;;;5006670;28;20181;-74
2021/09/25 01:20:12;;;;;;;1.77;1.75;;;12.30;77.50;;;;;;5014833;28;20192;-74
2021/09/25 01:22:38;;;;;;;2.58;1.95;;;12.30;77.60;;;;;;5016153;28;20203;-75
2021/09/25 01:25:05;;;;;;;1.75;1.65;;;12.20;77.50;;;;;;5013276;28;20216;-75
2021/09/25 01:27:31;;;;;;;1.83;1.73;;;;;;;;;;5015377;28;20188;-75
2021/09/25 01:29:57;;;;;;;2.45;1.67;;;12.20;77.90;;;;;;5017647;28;20188;-74
2021/09/25 01:32:23;;;;;;;1.00;1.00;;;;;;;;;;5010799;28;20692;-75
2021/09/25 01:34:50;;;;;;;2.35;1.60;;;12.10;78.50;;;;;;5010000;28;20217;-74
2021/09/25 01:37:15;;;;;;;1.65;1.63;;;12.10;78.50;;;;;;5005673;28;20296;-74
2021/09/25 01:39:41;;;;;;;1.85;1.75;;;12.10;78.60;;;;;;5004064;28;20185;-74
2021/09/25 01:42:07;;;;;;;2.20;2.08;;;12.10;78.20;;;;;;5016380;28;20682;-73
2021/09/25 01:44:33;;;;;;;2.00;1.90;;;12.00;78.50;;;;;;5011249;28;20212;-74
2021/09/25 01:47:00;;;;;;;2.58;1.50;;;12.00;79.00;;;;;;5012887;28;20302;-74
2021/09/25 01:49:27;;;;;;;2.50;2.15;;;12.10;78.40;;;;;;5009933;28;20280;-74
2021/09/25 01:51:53;;;;;;;2.05;1.95;;;12.10;78.50;;;;;;5007597;28;20198;-75
2021/09/25 01:54:19;;;;;;;1.70;1.60;;;12.10;78.60;;;;;;5013689;28;20217;-72
2021/09/25 01:56:46;;;;;;;2.10;1.95;;;12.10;78.80;;;;;;5020502;28;20666;-74
2021/09/25 01:59:12;;;;;;;1.88;1.77;;;12.10;78.70;;;;;;5010189;28;20263;-75
2021/09/25 02:01:38;;;;;;;9.73;2.25;;;12.10;79.00;;;;;;5012239;28;20180;-75
2021/09/25 02:04:04;;;;;;;1.98;1.88;;;12.00;79.00;;;;;;5014771;28;20254;-74
2021/09/25 02:06:30;;;;;;;1.83;1.73;;;12.00;78.80;;;;;;5018365;28;20184;-74
2021/09/25 02:08:56;;;;;;;2.30;2.20;;;12.00;78.40;;;;;;5016838;28;20185;-74
2021/09/25 02:11:23;;;;;;;2.00;1.45;;;12.10;78.10;;;;;;5002287;28;20189;-74
2021/09/25 02:13:49;;;;;;;2.15;1.95;;;12.00;78.40;;;;;;5013059;28;20216;-74
2021/09/25 02:16:15;;;;;;;2.38;2.17;;;12.00;78.40;;;;;;5045155;28;20184;-74
2021/09/25 02:18:41;;;;;;;2.50;2.30;;;12.00;78.60;;;;;;5012677;28;20207;-74
2021/09/25 02:21:07;;;;;;;1.85;1.75;;;12.00;78.70;;;;;;5007805;28;20192;-74
2021/09/25 02:23:34;;;;;;;1.75;1.65;;;12.00;79.10;;;;;;5013744;28;20730;-73
2021/09/25 02:26:06;;;;;;;3.38;2.28;;;12.00;79.00;;;;;;5008420;28;20189;-74
2021/09/25 02:28:32;;;;;;;1.55;1.45;;;11.90;78.90;;;;;;5012389;28;20272;-73
2021/09/25 02:30:59;;;;;;;2.00;1.73;;;11.90;79.10;;;;;;5013676;28;20260;-74
2021/09/25 02:33:25;;;;;;;1.33;1.33;;;11.90;79.80;;;;;;5011618;28;20323;-73
2021/09/25 02:35:51;;;;;;;1.98;1.80;;;;;;;;;;5014301;28;20260;-74
2021/09/25 02:38:17;;;;;;;2.35;1.92;;;11.90;79.40;;;;;;5014722;28;20699;-74
2021/09/25 02:40:44;;;;;;;1.63;1.63;;;11.80;78.70;;;;;;5013317;28;20185;-74
2021/09/25 02:43:09;;;;;;;4.35;2.10;;;11.80;78.40;;;;;;5009350;28;20260;-74
2021/09/25 02:45:37;;;;;;;2.50;2.28;;;11.80;78.20;;;;;;5017128;28;20184;-74
2021/09/25 02:48:04;;;;;;;3.72;1.90;;;11.80;78.20;;;;;;5011213;28;20219;-74
2021/09/25 02:50:30;;;;;;;1.23;1.23;;;11.80;78.00;;;;;;5010932;28;20208;-74
2021/09/25 02:52:56;;;;;;;2.03;1.92;;;11.70;78.10;;;;;;5019188;28;20181;-74
2021/09/25 02:55:22;;;;;;;2.17;1.95;;;11.70;77.90;;;;;;5010484;28;20222;-75
2021/09/25 02:57:47;;;;;;;2.13;1.88;;;11.70;78.00;;;;;;5011598;28;20181;-74
2021/09/25 03:00:19;;;;;;;1.38;1.35;;;11.70;78.10;;;;;;5008161;28;20180;-74
2021/09/25 03:02:45;;;;;;;3.08;1.83;;;11.70;78.30;;;;;;5011668;28;20185;-75
2021/09/25 03:05:11;;;;;;;1.75;1.65;;;11.70;78.30;;;;;;5015724;28;20293;-74
2021/09/25 03:07:37;;;;;;;2.30;2.15;;;11.70;79.10;;;;;;5014906;28;20653;-74
2021/09/25 03:10:04;;;;;;;2.13;1.95;;;11.70;78.90;;;;;;5008633;28;20571;-74
2021/09/25 03:12:30;;;;;;;3.70;1.60;;;11.70;79.50;;;;;;5013424;28;20283;-73
2021/09/25 03:14:56;;;;;;;4.20;1.67;;;11.70;79.70;;;;;;5011922;28;20307;-74
2021/09/25 03:17:22;;;;;;;2.83;1.83;;;11.70;79.70;;;;;;5011881;28;20184;-74
2021/09/25 03:19:47;;;;;;;2.00;1.80;;;11.70;80.00;;;;;;5008944;28;20185;-75
2021/09/25 03:22:14;;;;;;;1.67;1.58;;;11.60;79.50;;;;;;5008155;28;21093;-74
2021/09/25 03:24:40;;;;;;;7.05;1.27;;;11.60;79.60;;;;;;5010990;28;20250;-74
2021/09/25 03:27:06;;;;;;;3.70;1.52;;;11.60;79.90;;;;;;5010456;28;20193;-75
2021/09/25 03:29:32;;;;;;;3.72;2.13;;;11.60;79.90;;;;;;5006236;28;20276;-74
2021/09/25 03:31:57;;;;;;;1.92;1.83;;;11.50;80.30;;;;;;5008975;28;20184;-75
2021/09/25 03:34:23;;;;;;;2.20;2.08;;;11.50;80.30;;;;;;5013779;28;20706;-73
2021/09/25 03:36:49;;;;;;;2.20;2.00;;;11.50;80.40;;;;;;5014443;28;20561;-73
2021/09/25 03:39:14;;;;;;;3.13;2.05;;;11.50;80.40;;;;;;5012170;28;20183;-73
2021/09/25 03:41:40;;;;;;;2.25;2.00;;;11.50;80.60;;;;;;5010505;28;20240;-73
2021/09/25 03:44:07;;;;;;;1.83;1.63;;;11.40;80.50;;;;;;5010567;28;20200;-73
2021/09/25 03:46:33;;;;;;;2.88;1.83;;;11.40;80.50;;;;;;5010387;28;20185;-74
2021/09/25 03:48:58;;;;;;;1.23;1.23;;;11.40;80.60;;;;;;5009276;28;20264;-74
2021/09/25 03:51:24;;;;;;;1.83;1.73;;;11.30;80.60;;;;;;5016924;28;20633;-74
2021/09/25 03:53:50;;;;;;;2.47;1.75;;;11.30;80.40;;;;;;5014698;28;20216;-73
2021/09/25 03:56:16;;;;;;;3.80;1.95;;;11.30;80.80;;;;;;5015546;28;20195;-73
2021/09/25 03:58:43;;;;;;;1.85;1.75;;;11.20;81.40;;;;;;5008985;28;20181;-73
2021/09/25 04:01:11;;;;;;;2.20;1.75;;;11.20;81.60;;;;;;5006804;28;20259;-74
2021/09/25 04:03:37;;;;;;;3.03;1.88;;;11.20;81.70;;;;;;5008955;28;20176;-73
2021/09/25 04:06:03;;;;;;;4.00;1.58;;;11.20;81.70;;;;;;5009817;28;20250;-74
2021/09/25 04:08:29;;;;;;;1.65;1.55;;;11.20;81.60;;;;;;5045171;28;20192;-74
2021/09/25 04:10:55;;;;;;;2.10;1.80;;;11.20;81.80;;;;;;5006366;28;20197;-74
2021/09/25 04:13:21;;;;;;;2.08;1.95;;;11.20;81.80;;;;;;5010937;28;20196;-73
2021/09/25 04:15:47;;;;;;;3.38;1.95;;;11.20;81.60;;;;;;5011968;28;20223;-73
2021/09/25 04:18:13;;;;;;;1.95;1.85;;;11.20;81.80;;;;;;5013266;28;20216;-74
2021/09/25 04:20:39;;;;;;;5.50;1.88;;;;;;;;;;5010058;28;20173;-74
2021/09/25 04:23:05;;;;;;;1.88;1.77;;;11.20;81.50;;;;;;5012710;28;20637;-74
2021/09/25 04:25:31;;;;;;;2.40;2.10;;;11.20;81.40;;;;;;5008220;28;20213;-74
2021/09/25 04:28:05;;;;;;;1.60;1.60;;;11.20;81.30;;;;;;5011351;28;20189;-74
2021/09/25 04:30:35;;;;;;;2.20;1.80;;;11.20;81.00;;;;;;5006770;28;20276;-74
2021/09/25 04:33:01;;;;;;;3.90;1.67;;;11.20;81.20;;;;;;5010492;28;20219;-74
2021/09/25 04:35:27;;;;;;;2.15;2.05;;;11.20;81.40;;;;;;5007833;28;20655;-74
2021/09/25 04:37:53;;;;;;;1.58;1.48;;;11.20;81.60;;;;;;5011057;28;20193;-74
2021/09/25 04:40:19;;;;;;;1.95;1.85;;;11.20;81.80;;;;;;5007853;28;20197;-74
2021/09/25 04:42:44;;;;;;;2.00;1.60;;;11.20;81.80;;;;;;5014414;28;20263;-74
2021/09/25 04:45:12;;;;;;;1.92;1.67;;;11.20;81.90;;;;;;5008068;28;20192;-74
2021/09/25 04:47:42;;;;;;;2.83;2.30;;;11.20;82.40;;;;;;5008666;28;20732;-74
2021/09/25 04:50:09;;;;;;;2.15;1.98;;;11.10;82.60;;;;;;5014055;28;20219;-74
2021/09/25 04:52:35;;;;;;;1.80;1.70;;;11.10;83.00;;;;;;5009722;28;20223;-74
2021/09/25 04:55:01;;;;;;;1.90;1.80;;;11.10;82.90;;;;;;5008186;28;20280;-74
2021/09/25 04:57:26;;;;;;;5.72;1.83;;;11.10;82.60;;;;;;5010894;28;20197;-75
2021/09/25 04:59:52;;;;;;;2.30;2.20;;;11.10;82.10;;;;;;5002175;28;20186;-74
2021/09/25 05:02:18;;;;;;;1.98;1.88;;;11.20;82.60;;;;;;5011010;28;20235;-74
2021/09/25 05:04:43;;;;;;;2.25;2.05;;;11.20;82.30;;;;;;5016085;28;20663;-74
2021/09/25 05:07:10;;;;;;;2.30;1.83;;;11.20;82.00;;;;;;5015162;28;20196;-74
2021/09/25 05:09:35;;;;;;;5.85;2.22;;;11.30;81.80;;;;;;5014965;28;20265;-74
2021/09/25 05:12:02;;;;;;;1.95;1.85;;;11.40;81.50;;;;;;5016475;28;20980;-73
2021/09/25 05:14:27;;;;;;;1.67;1.58;;;11.40;81.50;;;;;;5018836;28;20196;-73
2021/09/25 05:16:54;;;;;;;1.83;1.70;;;11.50;81.90;;;;;;5011934;28;20185;-75
2021/09/25 05:19:19;;;;;;;2.80;2.08;;;11.60;82.10;;;;;;5009692;28;20184;-74
2021/09/25 05:21:45;;;;;;;2.33;2.13;;;;;;;;;;5010249;28;20195;-74
2021/09/25 05:24:11;;;;;;;2.50;2.00;;;11.60;82.20;;;;;;5020952;28;20196;-74
2021/09/25 05:26:37;;;;;;;2.15;1.95;;;11.70;82.60;;;;;;5018628;28;21008;-74
2021/09/25 05:29:03;;;;;;;1.98;1.88;;;11.70;82.20;;;;;;5016070;28;20191;-75
2021/09/25 05:31:30;;;;;;;5.60;2.35;;;11.70;82.00;;;;;;5016470;28;20247;-75
2021/09/25 05:33:57;;;;;;;2.47;2.28;;;11.80;82.00;;;;;;5014837;28;20227;-74
2021/09/25 05:36:24;;;;;;;1.92;1.83;;;11.90;82.30;;;;;;5020367;28;20185;-75
2021/09/25 05:38:49;;;;;;;1.90;1.80;;;12.00;82.30;;;;;;5012202;28;20180;-74
2021/09/25 05:41:15;;;;;;;2.33;1.90;;;12.00;82.00;;;;;;5012107;28;20192;-73
2021/09/25 05:43:41;;;;;;;3.22;2.03;;;;;;;;;;5017324;28;20296;-74
2021/09/25 05:46:07;;;;;;;2.35;2.13;;;12.10;81.30;;;;;;5012536;28;20190;-75
2021/09/25 05:48:34;;;;;;;2.35;2.22;;;12.20;81.50;;;;;;5008584;28;20185;-75
2021/09/25 05:51:03;;;;;;;4.30;1.63;;;12.20;81.30;;;;;;5021696;28;20181;-74
2021/09/25 05:53:28;;;;;;;2.83;2.25;;;12.30;81.20;;;;;;5014213;28;20682;-74
2021/09/25 05:55:54;;;;;;;2.22;2.03;;;;;;;;;;5015281;28;20184;-74
2021/09/25 05:58:20;;;;;;;4.28;1.77;;;;;;;;;;5013906;28;20238;-74
2021/09/25 06:00:46;;;;;;;3.22;2.33;;;12.50;81.20;;;;;;5015821;28;20642;-74
2021/09/25 06:03:12;;;;;;;3.15;2.40;;;12.50;81.30;;;;;;5010821;28;20215;-74
2021/09/25 06:05:38;;;;;;;3.35;2.35;;;;;;;;;;5017717;28;20191;-74
2021/09/25 06:08:05;;;;;;;4.28;2.60;;;12.70;80.90;;;;;;5012190;28;20189;-74
2021/09/25 06:10:32;;;;;;;1.88;1.65;;;12.70;80.80;;;;;;5013193;28;20235;-74
2021/09/25 06:12:58;;;;;;;2.30;2.10;;;12.80;80.60;;;;;;5011621;28;20188;-74
2021/09/25 06:15:24;;;;;;;1.42;1.33;;;12.90;80.50;;;;;;5018228;28;20213;-74
2021/09/25 06:17:52;;;;;;;1.85;1.70;;;12.90;80.50;;;;;;5012802;28;20192;-74
2021/09/25 06:20:18;;;;;;;2.10;2.00;;;13.00;80.30;;;;;;5016362;28;20674;-76
2021/09/25 06:22:43;;;;;;;4.00;2.20;;;13.00;80.40;;;;;;5011764;28;20233;-75
2021/09/25 06:25:10;;;;;;;2.88;2.58;;;13.10;80.00;;;;;;5009731;28;20193;-75
2021/09/25 06:27:37;;;;;;;5.13;2.85;;;13.20;79.80;;;;;;5011234;28;20184;-75
2021/09/25 06:30:04;;;;;;;2.17;2.08;;;13.30;80.00;;;;;;5008921;28;20267;-75
2021/09/25 06:32:30;;;;;;;2.53;2.33;;;;;;;;;;5011093;28;20581;-75
2021/09/25 06:34:56;;;;;;;1.98;1.83;;;;;;;;;;5008369;28;20224;-76
2021/09/25 06:37:22;;;;;;;1.77;1.67;;;13.50;79.50;;;;;;5010281;28;20272;-75
2021/09/25 06:39:48;;;;;;;2.78;1.75;;;;;;;;;;5014742;28;20275;-74
2021/09/25 06:42:14;;;;;;;3.53;2.35;;;13.70;79.10;;;;;;5005300;28;20199;-77
2021/09/25 06:44:40;;;;;;;2.05;1.85;;;;;;;;;;5006281;28;20180;-77
2021/09/25 06:47:05;;;;;;;2.75;2.00;;;13.90;78.60;;;;;;5009691;28;20192;-78
2021/09/25 06:49:31;;;;;;;3.20;2.28;;;14.00;78.10;;;;;;5012023;28;20189;-73
2021/09/25 06:51:57;;;;;;;4.18;1.98;;;14.00;78.00;;;;;;5008272;28;20675;-74
2021/09/25 06:54:22;;;;;;;3.63;2.33;;;14.20;77.90;;;;;;5006065;28;20212;-75
2021/09/25 06:56:48;;;;;;;1.70;1.60;;;;;;;;;;5010950;28;20223;-73
2021/09/25 06:59:14;;;;;;;3.70;2.03;;;14.30;77.70;;;;;;5007900;28;20212;-74
2021/09/25 07:01:40;;;;;;;6.82;2.00;;;;;;;;;;5011715;28;20212;-75
2021/09/25 07:04:06;;;;;;;2.08;1.98;;;14.60;77.20;;;;;;5007278;28;20594;-75
2021/09/25 07:06:33;;;;;;;2.03;1.73;;;14.70;77.40;;;;;;5008503;28;20279;-75
2021/09/25 07:08:59;;;;;;;1.73;1.63;;;;;;;;;;5006784;28;20292;-73
2021/09/25 07:11:24;;;;;;;1.98;1.88;;;15.00;76.90;;;;;;5010673;28;20192;-74
2021/09/25 07:13:50;;;;;;;2.13;2.00;;;;;;;;;;5006930;28;20221;-75
2021/09/25 07:16:16;;;;;;;3.30;2.08;;;15.30;76.70;;;;;;5008501;28;20587;-73
2021/09/25 07:18:42;;;;;;;1.73;1.63;;;;;;;;;;5005491;28;20185;-73
2021/09/25 07:21:08;;;;;;;1.88;1.77;;;15.60;76.40;;;;;;5007686;28;20274;-75
2021/09/25 07:23:36;;;;;;;1.83;1.73;;;15.70;76.30;;;;;;5010730;28;20260;-74
2021/09/25 07:26:02;;;;;;;2.30;2.10;;;15.80;76.30;;;;;;5003319;28;20753;-73
2021/09/25 07:28:28;;;;;;;2.10;1.88;;;16.00;76.30;;;;;;5011088;28;20658;-74
2021/09/25 07:30:54;;;;;;;2.30;1.77;;;16.20;76.30;;;;;;5040925;28;20220;-73
2021/09/25 07:33:19;;;;;;;1.92;1.77;;;16.40;76.20;;;;;;5008548;28;20188;-73
2021/09/25 07:35:45;;;;;;;2.67;1.73;;;16.60;76.20;;;;;;5012049;28;20212;-75
2021/09/25 07:38:11;;;;;;;1.85;1.83;;;16.80;75.90;;;;;;5007674;28;20251;-74
2021/09/25 07:40:40;;;;;;;3.75;1.88;;;17.00;75.70;;;;;;5011706;28;20184;-74
2021/09/25 07:43:05;;;;;;;1.88;1.77;;;17.20;75.60;;;;;;5011390;28;20675;-74
2021/09/25 07:45:31;;;;;;;1.73;1.35;;;17.40;75.40;;;;;;5009661;28;20280;-74
2021/09/25 07:47:57;;;;;;;2.60;2.22;;;17.70;75.00;;;;;;5009845;28;20192;-72
2021/09/25 07:50:23;;;;;;;1.70;1.60;;;17.90;74.50;;;;;;5012114;28;20196;-74
2021/09/25 07:52:50;;;;;;;2.53;1.60;;;18.20;74.30;;;;;;5014412;28;20192;-78
2021/09/25 07:55:16;;;;;;;1.95;1.30;;;18.60;73.40;;;;;;5043317;28;20690;-77
2021/09/25 07:57:42;;;;;;;2.60;1.60;;;19.20;72.10;;;;;;5009388;28;20246;-76
2021/09/25 08:00:11;;;;;;;4.97;1.55;;;19.80;70.20;;;;;;5011242;28;20185;-77
2021/09/25 08:02:36;;;;;;;1.80;1.33;;;20.40;69.60;;;;;;5013273;28;20183;-77
2021/09/25 08:05:03;;;;;;;1.38;1.20;;;21.00;68.50;;;;;;5009760;28;20185;-74
2021/09/25 08:07:29;;;;;;;1.52;1.02;;;21.70;66.70;;;;;;5010654;28;20271;-75
2021/09/25 08:09:55;;;;;;;1.20;1.20;;;;;;;;;;5008795;28;20762;-76
2021/09/25 08:12:21;;;;;;;1.67;1.33;;;23.30;63.40;;;;;;5015821;28;21769;-76
2021/09/25 08:14:47;;;;;;;0.98;0.98;;;24.00;62.40;;;;;;5009284;28;20331;-75
2021/09/25 08:17:13;;;;;;;1.20;1.20;;;;;;;;;;5011071;28;20181;-75
2021/09/25 08:19:38;;;;;;;2.03;1.17;;;25.40;60.20;;;;;;5009480;28;20209;-75
2021/09/25 08:22:05;;;;;;;1.17;1.17;;;26.00;58.90;;;;;;5012260;28;20216;-74
2021/09/25 08:24:31;;;;;;;1.45;1.35;;;26.40;57.70;;;;;;5008677;28;20189;-75
2021/09/25 08:26:57;;;;;;;1.08;0.95;;;26.80;57.50;;;;;;5047522;28;20658;-74
2021/09/25 08:29:23;;;;;;;0.88;0.88;;;27.20;56.50;;;;;;5012781;28;20200;-72
2021/09/25 08:31:49;;;;;;;1.00;0.90;;;27.50;55.50;;;;;;5013270;28;20654;-73
2021/09/25 08:34:15;;;;;;;1.15;0.95;;;;;;;;;;5011238;28;20244;-72
2021/09/25 08:36:41;;;;;;;1.52;1.42;;;;;;;;;;5017301;28;20181;-75
2021/09/25 08:39:08;;;;;;;2.05;1.33;;;27.90;55.00;;;;;;5016567;28;20180;-75
2021/09/25 08:41:34;;;;;;;1.40;1.23;;;28.10;54.00;;;;;;5012721;28;20195;-75
2021/09/25 08:44:00;;;;;;;1.45;1.45;;;28.10;54.00;;;;;;5013259;28;20658;-75
2021/09/25 08:46:26;;;;;;;1.30;1.30;;;28.00;54.50;;;;;;5017164;28;20189;-74
2021/09/25 08:48:52;;;;;;;1.20;1.20;;;28.30;54.70;;;;;;5014131;28;20209;-72
2021/09/25 08:51:18;;;;;;;1.10;1.10;;;28.70;54.70;;;;;;5016092;28;20227;-72
2021/09/25 08:53:44;;;;;;;1.25;1.25;;;29.10;53.70;;;;;;5013336;28;20173;-73
2021/09/25 08:56:09;;;;;;;1.83;1.30;;;29.60;53.50;;;;;;5017341;28;20658;-73
2021/09/25 08:58:35;;;;;;;1.17;1.17;;;30.10;52.10;;;;;;5013027;28;20189;-72
2021/09/25 09:01:01;;;;;;;1.00;1.00;;;30.60;51.50;;;;;;5018143;28;20953;-72
2021/09/25 09:03:36;;;;;;;1.35;1.35;;;31.20;51.10;;;;;;5015789;28;20193;-71
2021/09/25 09:06:05;;;;;;;1.60;1.60;;;31.60;49.80;;;;;;5011741;28;20188;-72
2021/09/25 09:08:31;;;;;;;1.48;1.48;;;31.80;48.50;;;;;;5010374;28;20184;-73
2021/09/25 09:10:57;;;;;;;1.50;1.40;;;32.00;49.70;;;;;;5011036;28;20575;-73
2021/09/25 09:13:23;;;;;;;1.67;1.67;;;32.20;48.90;;;;;;5008909;28;20191;-74
2021/09/25 09:15:51;;;;;;;3.10;1.67;;;32.40;49.10;;;;;;5021493;28;20760;-73
2021/09/25 09:18:21;;;;;;;1.42;1.42;;;32.80;48.80;;;;;;5010806;28;20187;-74
2021/09/25 09:21:04;;;;;;;1.60;1.52;;;33.20;47.50;;;;;;5012761;28;20195;-74
2021/09/25 09:23:32;;;;;;;3.80;1.73;;;33.30;46.40;;;;;;5013568;28;20185;-72
2021/09/25 09:25:59;;;;;;;1.52;1.40;;;33.50;48.70;;;;;;5015553;28;20268;-71
2021/09/25 09:28:26;;;;;;;1.20;1.20;;;33.90;46.90;;;;;;5015908;28;20180;-69
2021/09/25 09:30:56;;;;;;;1.83;1.48;;;34.00;46.90;;;;;;5012559;28;20208;-72
2021/09/25 09:33:36;;;;;;;1.60;1.50;;;34.20;47.40;;;;;;5014660;28;20191;-72
2021/09/25 09:36:15;;;;;;;1.75;1.40;;;34.50;47.30;;;;;;5014553;28;20292;-72
2021/09/25 09:38:55;;;;;;;1.20;1.20;;;35.00;45.20;;;;;;5014855;28;20184;-73
2021/09/25 09:41:31;;;;;;;1.52;1.45;;;35.30;46.50;;;;;;5013533;28;20626;-72
2021/09/25 09:44:04;;;;;;;1.42;1.40;;;35.90;45.80;;;;;;5015614;28;20657;-72
2021/09/25 09:46:33;;;;;;;1.40;1.40;;;36.40;44.80;;;;;;5010959;28;20243;-73
2021/09/25 09:48:59;;;;;;;1.85;1.33;;;36.70;45.70;;;;;;5012693;28;20212;-75
2021/09/25 09:51:36;;;;;;;1.30;1.30;;;37.10;45.00;;;;;;5013911;28;20221;-73
2021/09/25 09:54:02;;;;;;;1.40;1.40;;;37.60;42.60;;;;;;5016448;28;20191;-73
2021/09/25 09:56:28;;;;;;;1.20;1.20;;;38.00;44.30;;;;;;5015855;28;20264;-72
2021/09/25 09:59:07;;;;;;;1.48;1.48;;;38.30;43.80;;;;;;5012674;28;20247;-74
2021/09/25 10:01:33;;;;;;;1.65;1.55;;;38.50;42.30;;;;;;5014115;28;20180;-74
2021/09/25 10:04:00;;;;;;;1.60;1.50;;;38.70;43.90;;;;;;5012178;28;20212;-74
2021/09/25 10:06:27;;;;;;;1.38;1.30;;;38.60;43.40;;;;;;5016008;28;20219;-73
2021/09/25 10:08:53;;;;;;;4.00;1.48;;;38.50;43.00;;;;;;5015584;28;20188;-74
2021/09/25 10:11:21;;;;;;;1.20;1.10;;;38.50;43.30;;;;;;5013989;28;20215;-75
2021/09/25 10:13:46;;;;;;;1.10;1.10;;;38.70;42.40;;;;;;5013873;28;20180;-72
2021/09/25 10:16:13;;;;;;;1.73;1.52;;;39.00;42.90;;;;;;5009266;28;20215;-74
2021/09/25 10:18:41;;;;;;;1.38;1.33;;;39.40;41.30;;;;;;5006516;28;20763;-73
2021/09/25 10:21:11;;;;;;;1.88;1.10;;;39.70;42.80;;;;;;5010238;28;20180;-75
2021/09/25 10:23:41;;;;;;;1.35;1.35;;;39.80;41.00;;;;;;5008549;28;20263;-75
2021/09/25 10:26:08;;;;;;;1.02;0.98;;;39.80;42.60;;;;;;5011768;28;20273;-75
2021/09/25 10:28:35;;;;;;;1.50;1.50;;;39.90;42.90;;;;;;5016441;28;20259;-75
2021/09/25 10:31:02;;;;;;;1.20;1.20;;;40.30;42.40;;;;;;5011883;28;20177;-75
2021/09/25 10:33:28;;;;;;;1.20;1.20;;;40.20;40.30;;;;;;5014209;28;20254;-76
2021/09/25 10:35:54;;;;;;;1.40;1.40;;;39.40;40.80;;;;;;5013786;28;20658;-75
2021/09/25 10:38:38;;;;;;;1.30;1.30;;;38.80;42.10;;;;;;5020004;28;20690;-76
2021/09/25 10:41:19;;;;;;;1.02;1.02;;;38.50;41.60;;;;;;5008537;28;20219;-75
2021/09/25 10:43:48;;;;;;;1.13;1.13;;;38.50;41.40;;;;;;5014311;28;20259;-75
2021/09/25 10:46:15;;;;;;;1.20;1.20;;;38.60;41.50;;;;;;5012419;28;20869;-75
2021/09/25 10:48:54;;;;;;;2.20;2.00;;;38.50;43.00;;;;;;5013867;28;20176;-75
2021/09/25 10:51:21;;;;;;;1.80;1.77;;;38.30;41.70;;;;;;5010313;28;20289;-75
2021/09/25 10:53:49;;;;;;;2.42;2.33;;;38.50;42.10;;;;;;5014295;28;20180;-74
2021/09/25 10:56:22;;;;;;;2.05;1.85;;;38.50;41.50;;;;;;5010335;28;20243;-75
2021/09/25 10:59:03;;;;;;;1.55;1.55;;;38.00;41.60;;;;;;5012695;28;20184;-75
2021/09/25 11:01:41;;;;;;;2.05;1.83;;;37.40;41.70;;;;;;5014318;28;20216;-75
2021/09/25 11:04:18;;;;;;;2.13;2.00;;;37.00;42.50;;;;;;5011703;28;20223;-75
2021/09/25 11:06:56;;;;;;;1.40;1.40;;;36.60;43.50;;;;;;5012515;28;20672;-77
2021/09/25 11:09:38;;;;;;;1.38;1.38;;;36.40;43.40;;;;;;5016653;28;20180;-76
2021/09/25 11:12:10;;;;;;;1.20;1.20;;;36.60;44.00;;;;;;5011920;28;20266;-75
2021/09/25 11:14:41;;;;;;;1.35;1.25;;;37.20;43.50;;;;;;5006715;28;20246;-75
2021/09/25 11:17:15;;;;;;;1.08;1.08;;;37.40;43.00;;;;;;5016149;28;20176;-74
2021/09/25 11:20:02;;;;;;;1.10;1.10;;;37.90;42.60;;;;;;5016166;28;20179;-75
2021/09/25 11:22:30;;;;;;;4.13;1.67;;;38.40;42.60;;;;;;5018328;28;20202;-75
2021/09/25 11:25:01;;;;;;;1.10;1.10;;;38.40;41.50;;;;;;5016453;28;21073;-76
2021/09/25 11:27:32;;;;;;;2.30;1.10;;;38.70;42.30;;;;;;5012306;28;20183;-76
2021/09/25 11:30:00;;;;;;;3.08;1.30;;;38.70;41.50;;;;;;5004930;28;20184;-76
2021/09/25 11:32:35;;;;;;;1.00;1.00;;;38.50;42.10;;;;;;5009190;28;20262;-76
2021/09/25 11:35:07;;;;;;;1.02;1.02;;;38.50;43.10;;;;;;5015067;28;20183;-76
2021/09/25 11:37:33;;;;;;;0.73;0.73;;;38.70;41.80;;;;;;5008356;28;20195;-76
2021/09/25 11:39:59;;;;;;;0.90;0.90;;;38.60;42.30;;;;;;5005334;28;20176;-75
2021/09/25 11:42:30;;;;;;;0.77;0.77;;;38.50;42.60;;;;;;5005163;28;20191;-75
2021/09/25 11:45:00;;;;;;;1.15;0.98;;;38.60;41.40;;;;;;5000606;28;20306;-76
2021/09/25 11:47:30;;;;;;;1.73;0.95;;;39.00;42.40;;;;;;5011562;28;20191;-78
2021/09/25 11:50:09;;;;;;;1.17;1.17;;;39.40;41.50;;;;;;5015662;28;20184;-75
2021/09/25 11:52:35;;;;;;;1.10;1.10;;;39.60;41.50;;;;;;5014974;28;20180;-81
2021/09/25 11:55:01;;;;;;;1.40;1.40;;;39.50;42.10;;;;;;5013765;28;20940;-77
2021/09/25 11:57:27;;;;;;;1.02;1.02;;;39.20;41.00;;;;;;5017125;28;20187;-75
2021/09/25 11:59:53;;;;;;;0.80;0.80;;;38.80;41.20;;;;;;5008806;28;20207;-74
2021/09/25 12:02:48;;;;;;;0.80;0.80;;;38.50;41.70;;;;;;5013670;28;20192;-75
2021/09/25 12:05:29;;;;;;;0.80;0.80;;;38.30;40.10;;;;;;5013996;28;20208;-80
2021/09/25 12:07:58;;;;;;;0.68;0.68;;;37.50;41.00;;;;;;5012447;28;20200;-76
2021/09/25 12:10:28;;;;;;;1.40;0.80;;;37.10;42.50;;;;;;5012358;28;20184;-76
2021/09/25 12:13:01;;;;;;;1.00;1.00;;;36.90;44.40;;;;;;5016094;28;20242;-75
2021/09/25 12:15:37;;;;;;;0.90;0.88;;;37.10;42.10;;;;;;5016352;28;20644;-75
2021/09/25 12:18:23;;;;;;;0.90;0.90;;;37.40;42.40;;;;;;5010558;28;20219;-76
2021/09/25 12:21:01;;;;;;;1.23;0.80;;;37.40;41.90;;;;;;5013255;28;20200;-75
2021/09/25 12:23:41;;;;;;;0.90;0.90;;;37.30;42.50;;;;;;5014139;28;20266;-75
2021/09/25 12:26:09;;;;;;;2.83;0.70;;;36.90;43.00;;;;;;5013896;28;20192;-75
2021/09/25 12:28:46;;;;;;;0.95;0.95;;;36.60;42.70;;;;;;5011552;28;20192;-77
2021/09/25 12:31:28;;;;;;;0.80;0.80;;;36.60;43.60;;;;;;5014335;28;20191;-77
2021/09/25 12:34:13;;;;;;;0.70;0.70;;;36.50;42.70;;;;;;4997778;28;20233;-77
2021/09/25 12:36:49;;;;;;;0.75;0.75;;;36.50;42.30;;;;;;5014136;28;20188;-76
2021/09/25 12:39:26;;;;;;;0.68;0.68;;;36.20;42.90;;;;;;5012950;28;20662;-77
2021/09/25 12:41:53;;;;;;;0.82;0.82;;;36.20;43.90;;;;;;5012688;28;20638;-77
2021/09/25 12:44:21;;;;;;;1.27;0.63;;;36.20;43.30;;;;;;5013069;28;20212;-77
2021/09/25 12:46:57;;;;;;;0.80;0.80;;;36.40;42.90;;;;;;5011809;28;20188;-76
2021/09/25 12:49:35;;;;;;;0.70;0.70;;;36.80;43.20;;;;;;5011286;28;20180;-76
2021/09/25 12:52:07;;;;;;;0.65;0.65;;;37.30;43.60;;;;;;5012638;28;20684;-76
2021/09/25 12:54:35;;;;;;;0.80;0.80;;;37.80;41.90;;;;;;5011443;28;20184;-76
2021/09/25 12:57:07;;;;;;;1.05;0.75;;;37.70;42.80;;;;;;5010553;28;20259;-76
2021/09/25 12:59:37;;;;;;;0.70;0.70;;;37.60;42.40;;;;;;5005505;28;20307;-77